createdAt,value
2019-01-13T00:02:01.069Z,7.64
2019-01-13T00:04:30.994Z,7.66
2019-01-13T00:07:00.964Z,7.66
2019-01-13T00:09:30.770Z,7.67
2019-01-13T00:12:00.633Z,7.68
2019-01-13T00:14:30.520Z,7.69
2019-01-13T00:17:21.426Z,7.67
2019-01-13T00:19:52.340Z,7.65
2019-01-13T00:22:22.455Z,7.66
2019-01-13T00:24:52.306Z,7.67
2019-01-13T00:27:24.692Z,7.68
2019-01-13T00:29:54.565Z,7.68
2019-01-13T00:32:24.516Z,7.67
2019-01-13T00:34:54.755Z,7.66
2019-01-13T00:37:24.695Z,7.64
2019-01-13T00:39:54.627Z,7.63
2019-01-13T00:42:24.485Z,7.63
2019-01-13T00:44:54.421Z,7.64
2019-01-13T00:47:24.288Z,7.62
2019-01-13T00:49:54.214Z,7.64
2019-01-13T00:52:24.134Z,7.62
2019-01-13T00:54:54.038Z,7.62
2019-01-13T00:57:24.000Z,7.61
2019-01-13T00:59:53.795Z,7.61
2019-01-13T01:02:23.741Z,7.62
2019-01-13T01:04:54.042Z,7.63
2019-01-13T01:07:23.985Z,7.61
2019-01-13T01:09:54.084Z,7.59
2019-01-13T01:12:24.061Z,7.59
2019-01-13T01:14:53.994Z,7.62
2019-01-13T01:17:23.875Z,7.60
2019-01-13T01:19:54.459Z,7.59
2019-01-13T01:22:24.345Z,7.59
2019-01-13T01:24:54.127Z,7.60
2019-01-13T01:27:24.060Z,7.59
2019-01-13T01:29:54.203Z,7.59
2019-01-13T01:32:24.138Z,7.61
2019-01-13T01:34:54.081Z,7.63
2019-01-13T01:37:23.938Z,7.62
2019-01-13T01:39:53.804Z,7.62
2019-01-13T01:42:24.010Z,7.61
2019-01-13T01:44:53.944Z,7.61
2019-01-13T01:47:24.528Z,7.62
2019-01-13T01:49:54.464Z,7.63
2019-01-13T01:52:24.376Z,7.64
2019-01-13T01:54:54.578Z,7.64
2019-01-13T01:57:24.793Z,7.64
2019-01-13T01:59:54.721Z,7.65
2019-01-13T02:02:24.655Z,7.66
2019-01-13T02:04:54.509Z,7.70
2019-01-13T02:07:24.504Z,7.69
2019-01-13T02:09:54.684Z,7.68
2019-01-13T02:12:24.715Z,7.69
2019-01-13T02:14:54.640Z,7.68
2019-01-13T02:17:24.564Z,7.67
2019-01-13T02:19:54.504Z,7.68
2019-01-13T02:22:25.059Z,7.68
2019-01-13T02:24:55.365Z,7.68
2019-01-13T02:27:25.575Z,7.67
2019-01-13T02:29:55.439Z,7.68
2019-01-13T02:32:25.289Z,7.67
2019-01-13T02:34:55.223Z,7.66
2019-01-13T02:37:25.160Z,7.65
2019-01-13T02:39:55.020Z,7.66
2019-01-13T02:42:25.224Z,7.65
2019-01-13T02:44:55.140Z,7.65
2019-01-13T02:47:25.101Z,7.61
2019-01-13T02:49:55.016Z,7.59
2019-01-13T02:52:25.287Z,7.59
2019-01-13T02:54:55.252Z,7.60
2019-01-13T02:57:25.628Z,7.61
2019-01-13T02:59:56.764Z,7.61
2019-01-13T03:02:26.687Z,7.62
2019-01-13T03:04:56.614Z,7.63
2019-01-13T03:07:26.858Z,7.63
2019-01-13T03:09:56.783Z,7.61
2019-01-13T03:12:26.650Z,7.62
2019-01-13T03:14:56.505Z,7.61
2019-01-13T03:17:26.362Z,7.62
2019-01-13T03:19:56.292Z,7.60
2019-01-13T03:22:26.216Z,7.60
2019-01-13T03:24:56.132Z,7.61
2019-01-13T03:27:25.998Z,7.61
2019-01-13T03:29:56.185Z,7.61
2019-01-13T03:32:26.031Z,7.61
2019-01-13T03:34:56.256Z,7.63
2019-01-13T03:37:26.783Z,7.65
2019-01-13T03:39:57.046Z,7.62
2019-01-13T03:42:26.964Z,7.62
2019-01-13T03:44:56.912Z,7.61
2019-01-13T03:47:26.767Z,7.60
2019-01-13T03:49:56.707Z,7.61
2019-01-13T03:52:26.648Z,7.62
2019-01-13T03:54:56.582Z,7.60
2019-01-13T03:57:26.517Z,7.59
2019-01-13T03:59:56.505Z,7.59
2019-01-13T04:02:26.299Z,7.59
2019-01-13T04:04:56.235Z,7.58
2019-01-13T04:07:26.182Z,7.62
2019-01-13T04:09:56.115Z,7.59
2019-01-13T04:12:26.971Z,7.60
2019-01-13T04:14:56.914Z,7.60
2019-01-13T04:17:27.050Z,7.59
2019-01-13T04:19:57.002Z,7.61
2019-01-13T04:22:26.865Z,7.62
2019-01-13T04:24:56.802Z,7.63
2019-01-13T04:27:27.074Z,7.63
2019-01-13T04:29:57.253Z,7.63
2019-01-13T04:32:27.556Z,7.63
2019-01-13T04:34:57.405Z,7.65
2019-01-13T04:37:27.349Z,7.64
2019-01-13T04:39:57.121Z,7.64
2019-01-13T04:42:27.015Z,7.65
2019-01-13T04:44:56.889Z,7.63
2019-01-13T04:47:26.753Z,7.65
2019-01-13T04:49:56.605Z,7.64
2019-01-13T04:52:26.797Z,7.62
2019-01-13T04:54:57.010Z,7.65
2019-01-13T04:57:26.885Z,7.64
2019-01-13T04:59:56.831Z,7.64
2019-01-13T05:02:26.765Z,7.65
2019-01-13T05:04:57.387Z,7.64
2019-01-13T05:07:27.509Z,7.67
2019-01-13T05:09:57.375Z,7.68
2019-01-13T05:12:27.875Z,7.68
2019-01-13T05:14:58.374Z,7.68
2019-01-13T05:17:28.544Z,7.67
2019-01-13T05:19:58.409Z,7.69
2019-01-13T05:22:28.262Z,7.68
2019-01-13T05:24:58.458Z,7.69
2019-01-13T05:27:31.077Z,7.70
2019-01-13T05:30:01.294Z,7.69
2019-01-13T05:32:32.190Z,7.69
2019-01-13T05:35:02.143Z,7.70
2019-01-13T05:37:31.923Z,7.71
2019-01-13T05:40:01.802Z,7.73
2019-01-13T05:42:31.670Z,7.74
2019-01-13T05:45:01.534Z,7.75
2019-01-13T05:47:32.610Z,7.78
2019-01-13T05:50:04.684Z,7.80
2019-01-13T05:52:35.231Z,7.81
2019-01-13T05:55:06.222Z,7.82
2019-01-13T05:57:36.748Z,7.81
2019-01-13T06:00:08.977Z,7.84
2019-01-13T06:02:38.866Z,7.86
2019-01-13T06:05:08.938Z,7.85
2019-01-13T06:07:38.894Z,7.86
2019-01-13T06:10:10.313Z,7.86
2019-01-13T06:12:40.309Z,7.88
2019-01-13T06:15:12.724Z,7.91
2019-01-13T06:17:42.823Z,7.89
2019-01-13T06:20:15.433Z,7.90
2019-01-13T06:22:45.731Z,7.89
2019-01-13T06:25:16.989Z,7.89
2019-01-13T06:27:47.066Z,7.92
2019-01-13T06:30:19.263Z,7.93
2019-01-13T06:32:49.202Z,7.94
2019-01-13T06:35:19.322Z,7.93
2019-01-13T06:37:50.124Z,7.93
2019-01-13T06:40:21.476Z,7.94
2019-01-13T06:42:51.741Z,7.93
2019-01-13T06:45:25.796Z,7.93
2019-01-13T06:47:57.458Z,7.94
2019-01-13T06:50:28.222Z,7.94
2019-01-13T06:52:58.418Z,7.93
2019-01-13T06:55:28.658Z,7.93
2019-01-13T06:57:59.163Z,7.91
2019-01-13T07:00:29.489Z,7.92
2019-01-13T07:03:00.909Z,7.94
2019-01-13T07:05:30.833Z,7.94
2019-01-13T07:08:01.062Z,7.96
2019-01-13T07:10:31.708Z,7.95
2019-01-13T07:13:01.824Z,7.95
2019-01-13T07:15:32.354Z,7.97
2019-01-13T07:18:02.318Z,7.96
2019-01-13T07:20:33.309Z,7.98
2019-01-13T07:23:03.233Z,7.98
2019-01-13T07:25:33.194Z,7.98
2019-01-13T07:28:03.141Z,8.00
2019-01-13T07:30:33.380Z,8.01
2019-01-13T07:33:03.228Z,8.02
2019-01-13T07:35:33.212Z,8.01
2019-01-13T07:38:03.016Z,8.05
2019-01-13T07:40:33.363Z,8.07
2019-01-13T07:43:03.632Z,8.06
2019-01-13T07:45:33.487Z,8.06
2019-01-13T07:48:03.742Z,8.08
2019-01-13T07:50:33.722Z,8.08
2019-01-13T07:53:04.209Z,8.10
2019-01-13T07:55:34.071Z,8.14
2019-01-13T07:58:03.931Z,8.16
2019-01-13T08:00:35.070Z,8.16
2019-01-13T08:03:06.257Z,8.17
2019-01-13T08:05:36.511Z,8.17
2019-01-13T08:08:06.442Z,8.19
2019-01-13T08:10:36.222Z,8.20
2019-01-13T08:13:06.078Z,8.20
2019-01-13T08:15:35.992Z,8.21
2019-01-13T08:18:06.847Z,8.23
2019-01-13T08:20:36.764Z,8.26
2019-01-13T08:23:07.011Z,8.27
2019-01-13T08:25:36.966Z,8.29
2019-01-13T08:28:07.620Z,8.30
2019-01-13T08:30:38.731Z,8.32
2019-01-13T08:33:09.052Z,8.36
2019-01-13T08:35:38.929Z,8.34
2019-01-13T08:38:09.113Z,8.35
2019-01-13T08:40:39.018Z,8.36
2019-01-13T08:43:09.225Z,8.37
2019-01-13T08:45:39.197Z,8.42
2019-01-13T08:48:09.127Z,8.44
2019-01-13T08:50:39.060Z,8.43
2019-01-13T08:53:09.006Z,8.48
2019-01-13T08:55:38.967Z,8.48
2019-01-13T08:58:09.277Z,8.49
2019-01-13T09:00:39.223Z,8.53
2019-01-13T09:03:09.923Z,8.58
2019-01-13T09:05:39.880Z,8.54
2019-01-13T09:08:10.014Z,8.59
2019-01-13T09:10:40.907Z,8.62
2019-01-13T09:13:11.656Z,8.61
2019-01-13T09:15:42.027Z,8.61
2019-01-13T09:18:11.988Z,8.64
2019-01-13T09:20:42.074Z,8.60
2019-01-13T09:23:12.028Z,8.64
2019-01-13T09:25:42.668Z,8.62
2019-01-13T09:28:12.640Z,8.62
2019-01-13T09:30:42.587Z,8.65
2019-01-13T09:33:12.526Z,8.64
2019-01-13T09:35:42.469Z,8.62
2019-01-13T09:38:12.442Z,8.62
2019-01-13T09:40:42.647Z,8.64
2019-01-13T09:43:13.071Z,8.64
2019-01-13T09:45:43.031Z,8.64
2019-01-13T09:48:12.976Z,8.68
2019-01-13T09:50:42.916Z,8.67
2019-01-13T09:53:12.877Z,8.64
2019-01-13T09:55:42.816Z,8.68
2019-01-13T09:58:13.106Z,8.66
2019-01-13T10:00:43.230Z,8.68
2019-01-13T10:03:15.923Z,8.69
2019-01-13T10:05:46.435Z,8.70
2019-01-13T10:08:16.542Z,8.69
2019-01-13T10:10:48.158Z,8.71
2019-01-13T10:13:18.504Z,8.70
2019-01-13T10:15:50.584Z,8.69
2019-01-13T10:18:20.621Z,8.70
2019-01-13T10:20:50.758Z,8.72
2019-01-13T10:23:20.973Z,8.72
2019-01-13T10:25:50.821Z,8.70
2019-01-13T10:28:22.604Z,8.74
2019-01-13T10:30:52.804Z,8.71
2019-01-13T10:33:22.851Z,8.72
2019-01-13T10:35:52.894Z,8.71
2019-01-13T10:38:23.051Z,8.73
2019-01-13T10:40:52.983Z,8.76
2019-01-13T10:43:23.212Z,8.73
2019-01-13T10:45:53.146Z,8.72
2019-01-13T10:48:23.323Z,8.73
2019-01-13T10:50:54.302Z,8.74
2019-01-13T10:53:24.598Z,8.76
2019-01-13T10:55:55.530Z,8.75
2019-01-13T10:58:26.070Z,8.77
2019-01-13T11:00:56.126Z,8.72
2019-01-13T11:03:26.080Z,8.73
2019-01-13T11:05:56.105Z,8.73
2019-01-13T11:08:26.132Z,8.74
2019-01-13T11:10:56.085Z,8.75
2019-01-13T11:13:26.110Z,8.77
2019-01-13T11:15:56.129Z,8.78
2019-01-13T11:18:26.305Z,8.80
2019-01-13T11:20:56.524Z,8.81
2019-01-13T11:23:27.113Z,8.83
2019-01-13T11:25:56.899Z,8.86
2019-01-13T11:28:27.710Z,8.86
2019-01-13T11:31:01.675Z,8.86
2019-01-13T11:33:31.785Z,8.90
2019-01-13T11:36:02.098Z,8.92
2019-01-13T11:38:32.377Z,8.92
2019-01-13T11:41:02.306Z,8.88
2019-01-13T11:43:32.935Z,8.90
2019-01-13T11:46:04.078Z,8.87
2019-01-13T11:48:34.599Z,8.88
2019-01-13T11:51:04.614Z,8.90
2019-01-13T11:53:34.738Z,8.86
2019-01-13T11:56:05.790Z,8.88
2019-01-13T11:58:36.001Z,8.88
2019-01-13T12:01:07.107Z,8.85
2019-01-13T12:03:37.249Z,8.90
2019-01-13T12:06:07.212Z,8.87
2019-01-13T12:08:37.153Z,8.87
2019-01-13T12:11:09.552Z,8.84
2019-01-13T12:13:40.207Z,8.86
2019-01-13T12:16:10.298Z,8.86
2019-01-13T12:18:40.861Z,8.86
2019-01-13T12:21:11.822Z,8.89
2019-01-13T12:23:41.857Z,8.89
2019-01-13T12:26:12.060Z,8.92
2019-01-13T12:28:42.002Z,8.90
2019-01-13T12:31:16.419Z,8.93
2019-01-13T12:33:47.359Z,8.91
2019-01-13T12:36:19.399Z,8.92
2019-01-13T12:38:49.686Z,8.96
2019-01-13T12:41:40.599Z,8.96
2019-01-13T12:44:10.637Z,8.95
2019-01-13T12:46:40.628Z,8.95
2019-01-13T12:49:10.572Z,8.95
2019-01-13T12:51:40.493Z,8.96
2019-01-13T12:54:10.438Z,8.97
2019-01-13T12:56:40.628Z,8.97
2019-01-13T12:59:10.616Z,8.97
2019-01-13T13:01:41.069Z,8.98
2019-01-13T13:04:11.131Z,8.98
2019-01-13T13:06:41.580Z,8.97
2019-01-13T13:09:11.360Z,8.97
2019-01-13T13:11:41.220Z,8.98
2019-01-13T13:14:11.138Z,8.98
2019-01-13T13:16:41.448Z,9.00
2019-01-13T13:19:19.474Z,9.00
2019-01-13T13:21:57.714Z,9.01
2019-01-13T13:24:29.612Z,9.00
2019-01-13T13:27:04.919Z,9.00
2019-01-13T13:29:39.767Z,8.97
2019-01-13T13:32:09.886Z,8.98
2019-01-13T13:34:40.070Z,9.00
2019-01-13T13:37:10.474Z,8.99
2019-01-13T13:39:40.591Z,8.98
2019-01-13T13:42:10.496Z,9.00
2019-01-13T13:44:40.726Z,8.98
2019-01-13T13:47:10.665Z,8.99
2019-01-13T13:49:40.879Z,9.00
2019-01-13T13:52:11.898Z,8.98
2019-01-13T13:54:41.935Z,9.00
2019-01-13T13:57:13.337Z,9.01
2019-01-13T13:59:43.297Z,9.01
2019-01-13T14:02:13.475Z,8.99
2019-01-13T14:04:43.422Z,8.97
2019-01-13T14:07:13.306Z,8.96
2019-01-13T14:09:43.329Z,8.97
2019-01-13T14:12:13.536Z,8.98
2019-01-13T14:14:43.430Z,8.99
2019-01-13T14:17:13.403Z,8.97
2019-01-13T14:19:43.586Z,9.00
2019-01-13T14:22:13.533Z,8.99
2019-01-13T14:24:43.461Z,9.00
2019-01-13T14:27:13.745Z,8.98
2019-01-13T14:29:43.589Z,8.98
2019-01-13T14:32:32.561Z,8.97
2019-01-13T14:35:06.736Z,8.94
2019-01-13T14:37:36.716Z,8.96
2019-01-13T14:40:11.011Z,8.96
2019-01-13T14:42:41.605Z,8.97
2019-01-13T14:45:14.717Z,8.97
2019-01-13T14:47:45.146Z,8.96
2019-01-13T14:50:18.577Z,8.96
2019-01-13T14:52:49.484Z,8.96
2019-01-13T14:55:19.803Z,8.93
2019-01-13T14:57:49.857Z,8.93
2019-01-13T15:00:24.930Z,8.95
2019-01-13T15:02:54.930Z,8.95
2019-01-13T15:05:25.289Z,8.95
2019-01-13T15:07:55.654Z,8.91
2019-01-13T15:10:26.351Z,8.94
2019-01-13T15:12:56.896Z,8.92
2019-01-13T15:15:28.151Z,8.94
2019-01-13T15:17:58.135Z,8.93
2019-01-13T15:20:29.198Z,8.92
2019-01-13T15:22:59.146Z,8.90
2019-01-13T15:25:33.033Z,8.94
2019-01-13T15:28:03.426Z,8.92
2019-01-13T15:30:42.413Z,8.93
2019-01-13T15:33:12.442Z,8.91
2019-01-13T15:35:42.381Z,8.91
2019-01-13T15:38:12.372Z,8.91
2019-01-13T15:40:42.768Z,8.92
2019-01-13T15:43:13.125Z,8.90
2019-01-13T15:45:43.118Z,8.90
2019-01-13T15:48:12.999Z,8.94
2019-01-13T15:50:43.275Z,8.93
2019-01-13T15:53:13.694Z,8.93
2019-01-13T15:55:43.645Z,8.95
2019-01-13T15:58:13.565Z,8.94
2019-01-13T16:00:43.497Z,8.95
2019-01-13T16:03:13.358Z,8.95
2019-01-13T16:05:43.348Z,8.95
2019-01-13T16:08:13.299Z,8.96
2019-01-13T16:10:43.210Z,8.95
2019-01-13T16:13:13.554Z,8.95
2019-01-13T16:15:43.517Z,8.96
2019-01-13T16:18:13.443Z,8.96
2019-01-13T16:20:43.374Z,8.96
2019-01-13T16:23:14.003Z,8.99
2019-01-13T16:25:43.962Z,9.00
2019-01-13T16:28:13.952Z,8.99
2019-01-13T16:30:44.168Z,8.98
2019-01-13T16:33:14.034Z,8.98
2019-01-13T16:35:44.011Z,8.98
2019-01-13T16:38:13.927Z,8.99
2019-01-13T16:40:43.913Z,9.00
2019-01-13T16:43:14.363Z,9.01
2019-01-13T16:45:44.505Z,8.98
2019-01-13T16:48:14.466Z,8.97
2019-01-13T16:50:44.367Z,9.01
2019-01-13T16:53:14.910Z,9.01
2019-01-13T16:55:44.859Z,9.03
2019-01-13T16:58:15.565Z,9.04
2019-01-13T17:00:45.542Z,9.03
2019-01-13T17:03:15.421Z,9.01
2019-01-13T17:05:45.203Z,9.02
2019-01-13T17:08:17.827Z,9.01
2019-01-13T17:10:47.914Z,9.01
2019-01-13T17:13:17.845Z,9.01
2019-01-13T17:15:47.685Z,9.02
2019-01-13T17:18:18.174Z,9.05
2019-01-13T17:20:48.362Z,9.05
2019-01-13T17:23:18.909Z,9.03
2019-01-13T17:25:48.853Z,9.04
2019-01-13T17:28:18.778Z,9.03
2019-01-13T17:30:48.635Z,9.04
2019-01-13T17:33:18.562Z,9.06
2019-01-13T17:35:48.487Z,9.08
2019-01-13T17:38:18.447Z,9.06
2019-01-13T17:40:48.385Z,9.05
2019-01-13T17:43:18.632Z,9.09
2019-01-13T17:45:48.758Z,9.10
2019-01-13T17:48:18.897Z,9.08
2019-01-13T17:50:51.303Z,9.09
2019-01-13T17:53:21.587Z,9.08
2019-01-13T17:55:51.608Z,9.02
2019-01-13T17:58:21.614Z,8.98
2019-01-13T18:01:15.493Z,8.95
2019-01-13T18:03:47.342Z,8.88
2019-01-13T18:06:17.540Z,8.84
2019-01-13T18:08:47.301Z,8.84
2019-01-13T18:11:17.532Z,8.82
2019-01-13T18:13:47.729Z,8.77
2019-01-13T18:16:17.638Z,8.77
2019-01-13T18:18:47.470Z,8.76
2019-01-13T18:21:17.590Z,8.72
2019-01-13T18:23:47.562Z,8.74
2019-01-13T18:26:17.708Z,8.77
2019-01-13T18:28:47.518Z,8.71
2019-01-13T18:31:17.814Z,8.72
2019-01-13T18:33:47.655Z,8.75
2019-01-13T18:36:17.486Z,8.72
2019-01-13T18:38:47.403Z,8.70
2019-01-13T18:41:17.171Z,8.73
2019-01-13T18:43:47.130Z,8.72
2019-01-13T18:46:16.979Z,8.71
2019-01-13T18:48:50.821Z,8.71
2019-01-13T18:51:20.817Z,8.72
2019-01-13T18:53:50.602Z,8.72
2019-01-13T18:56:20.534Z,8.72
2019-01-13T18:58:50.410Z,8.75
2019-01-13T19:01:20.300Z,8.81
2019-01-13T19:03:50.791Z,8.80
2019-01-13T19:06:20.808Z,8.86
2019-01-13T19:08:50.798Z,8.90
2019-01-13T19:11:24.667Z,8.93
2019-01-13T19:14:35.845Z,8.92
2019-01-13T19:17:07.909Z,8.81
2019-01-13T19:20:16.330Z,8.61
2019-01-13T19:22:54.432Z,8.48
2019-01-13T19:25:32.240Z,8.36
2019-01-13T19:28:02.148Z,8.29
2019-01-13T19:30:32.427Z,8.21
2019-01-13T19:33:02.361Z,8.13
2019-01-13T19:35:32.404Z,8.03
2019-01-13T19:38:02.258Z,7.99
2019-01-13T19:40:32.275Z,7.92
2019-01-13T19:43:02.602Z,7.76
2019-01-13T19:45:32.835Z,7.70
2019-01-13T19:48:02.800Z,7.61
2019-01-13T19:50:32.773Z,7.53
2019-01-13T19:53:02.796Z,7.41
2019-01-13T19:55:32.685Z,7.40
2019-01-13T19:58:02.607Z,7.39
2019-01-13T20:00:34.527Z,7.40
2019-01-13T20:03:05.945Z,7.40
2019-01-13T20:05:37.712Z,7.42
2019-01-13T20:08:07.776Z,7.43
2019-01-13T20:10:38.829Z,7.41
2019-01-13T20:13:08.748Z,7.47
2019-01-13T20:15:38.734Z,7.50
2019-01-13T20:18:08.744Z,7.54
2019-01-13T20:20:39.131Z,7.54
2019-01-13T20:23:09.100Z,7.55
2019-01-13T20:25:39.021Z,7.59
2019-01-13T20:28:08.916Z,7.58
2019-01-13T20:30:38.801Z,7.62
2019-01-13T20:33:09.028Z,7.63
2019-01-13T20:35:38.958Z,7.69
2019-01-13T20:38:08.785Z,7.70
2019-01-13T20:40:38.730Z,7.72
2019-01-13T20:43:08.990Z,7.75
2019-01-13T20:45:41.531Z,7.77
2019-01-13T20:48:11.494Z,7.83
2019-01-13T20:50:41.352Z,7.82
2019-01-13T20:53:11.255Z,7.84
2019-01-13T20:55:41.422Z,7.88
2019-01-13T20:58:11.349Z,7.90
2019-01-13T21:00:41.402Z,7.92
2019-01-13T21:03:11.311Z,7.96
2019-01-13T21:05:41.186Z,7.98
2019-01-13T21:08:11.412Z,7.97
2019-01-13T21:10:41.367Z,7.96
2019-01-13T21:13:11.269Z,7.98
2019-01-13T21:15:41.627Z,7.98
2019-01-13T21:18:12.615Z,7.99
2019-01-13T21:20:42.485Z,7.96
2019-01-13T21:23:12.753Z,8.00
2019-01-13T21:25:42.699Z,8.02
2019-01-13T21:28:12.721Z,8.05
2019-01-13T21:30:42.659Z,8.10
2019-01-13T21:33:12.811Z,8.11
2019-01-13T21:35:42.732Z,8.11
2019-01-13T21:38:12.651Z,8.11
2019-01-13T21:40:42.577Z,8.09
2019-01-13T21:43:12.883Z,8.05
2019-01-13T21:45:42.835Z,8.06
2019-01-13T21:48:13.315Z,8.04
2019-01-13T21:50:43.364Z,8.02
2019-01-13T21:53:13.554Z,8.02
2019-01-13T21:55:43.422Z,8.00
2019-01-13T21:58:13.286Z,7.97
2019-01-13T22:00:43.233Z,7.99
2019-01-13T22:03:13.546Z,8.00
2019-01-13T22:05:43.461Z,8.02
2019-01-13T22:08:13.448Z,7.99
2019-01-13T22:10:43.407Z,7.99
2019-01-13T22:13:13.424Z,7.96
2019-01-13T22:15:43.512Z,7.97
2019-01-13T22:18:13.428Z,7.93
2019-01-13T22:20:43.660Z,7.90
2019-01-13T22:23:13.555Z,7.91
2019-01-13T22:25:43.406Z,7.85
2019-01-13T22:28:13.384Z,7.83
2019-01-13T22:30:43.603Z,7.77
2019-01-13T22:33:13.429Z,7.79
2019-01-13T22:35:48.068Z,7.84
2019-01-13T22:38:15.357Z,7.85
2019-01-13T22:40:45.231Z,7.89
2019-01-13T22:43:15.007Z,7.87
2019-01-13T22:45:44.795Z,7.88
2019-01-13T22:48:15.051Z,7.85
2019-01-13T22:50:45.005Z,7.86
2019-01-13T22:53:14.876Z,7.90
2019-01-13T22:55:44.854Z,7.88
2019-01-13T22:58:14.714Z,7.89
2019-01-13T23:01:19.508Z,7.90
2019-01-13T23:03:49.605Z,7.87
2019-01-13T23:06:19.551Z,7.90
2019-01-13T23:08:49.477Z,7.89
2019-01-13T23:11:19.608Z,7.90
2019-01-13T23:13:49.891Z,7.86
2019-01-13T23:16:19.845Z,7.84
2019-01-13T23:18:49.692Z,7.78
2019-01-13T23:21:19.644Z,7.70
2019-01-13T23:23:49.556Z,7.65
2019-01-13T23:26:19.925Z,7.60
2019-01-13T23:28:50.500Z,7.55
2019-01-13T23:31:21.534Z,7.52
2019-01-13T23:33:51.763Z,7.51
2019-01-13T23:36:21.714Z,7.50
2019-01-13T23:38:51.580Z,7.51
2019-01-13T23:41:21.537Z,7.52
2019-01-13T23:43:51.303Z,7.54
2019-01-13T23:46:21.258Z,7.58
2019-01-13T23:48:53.055Z,7.57
2019-01-13T23:51:24.255Z,7.59
2019-01-13T23:53:54.258Z,7.57
2019-01-13T23:56:24.205Z,7.60
2019-01-13T23:58:54.604Z,7.60
